sensor_id;sensor_type;location;lat;lon;timestamp;pressure;altitude;pressure_sealevel;temperature;humidity
24440;BME280;12618;54.386;18.394;2023-05-27T21:21:05;100589.73;;;12.31;63.17
24440;BME280;12618;54.386;18.394;2023-05-27T21:23:37;100593.82;;;12.22;63.06
24440;BME280;12618;54.386;18.394;2023-05-27T21:26:09;100594.23;;;12.16;63.70
24440;BME280;12618;54.386;18.394;2023-05-27T21:28:41;100598.09;;;12.08;63.89
24440;BME280;12618;54.386;18.394;2023-05-27T21:31:14;100597.27;;;12.02;64.35
24440;BME280;12618;54.386;18.394;2023-05-27T21:33:45;100594.02;;;12.00;64.33
24440;BME280;12618;54.386;18.394;2023-05-27T21:36:17;100591.65;;;11.97;64.38
24440;BME280;12618;54.386;18.394;2023-05-27T21:38:49;100587.96;;;11.97;64.20
24440;BME280;12618;54.386;18.394;2023-05-27T21:41:21;100592.91;;;11.96;64.38
24440;BME280;12618;54.386;18.394;2023-05-27T21:43:53;100593.66;;;11.95;64.24
24440;BME280;12618;54.386;18.394;2023-05-27T21:46:26;100589.44;;;11.91;64.29
24440;BME280;12618;54.386;18.394;2023-05-27T21:48:58;100591.10;;;11.84;64.36
24440;BME280;12618;54.386;18.394;2023-05-27T21:51:30;100592.50;;;11.81;64.98
24440;BME280;12618;54.386;18.394;2023-05-27T21:54:02;100591.91;;;11.78;65.00
24440;BME280;12618;54.386;18.394;2023-05-27T21:56:34;100588.80;;;11.76;65.35
24440;BME280;12618;54.386;18.394;2023-05-27T21:59:05;100588.09;;;11.76;65.24
24440;BME280;12618;54.386;18.394;2023-05-27T22:01:37;100585.98;;;11.71;65.65
24440;BME280;12618;54.386;18.394;2023-05-27T22:04:09;100586.80;;;11.67;65.84
24440;BME280;12618;54.386;18.394;2023-05-27T22:06:41;100586.13;;;11.66;65.31
24440;BME280;12618;54.386;18.394;2023-05-27T22:09:14;100578.00;;;11.62;65.58
24440;BME280;12618;54.386;18.394;2023-05-27T22:11:46;100574.74;;;11.55;66.12
24440;BME280;12618;54.386;18.394;2023-05-27T22:14:17;100573.92;;;11.49;66.10
24440;BME280;12618;54.386;18.394;2023-05-27T22:16:49;100575.37;;;11.48;65.47
24440;BME280;12618;54.386;18.394;2023-05-27T22:19:21;100578.86;;;11.44;66.16
24440;BME280;12618;54.386;18.394;2023-05-27T22:21:53;100580.67;;;11.33;66.66
24440;BME280;12618;54.386;18.394;2023-05-27T22:24:24;100582.23;;;11.25;66.98
24440;BME280;12618;54.386;18.394;2023-05-27T22:26:56;100583.19;;;11.18;67.78
24440;BME280;12618;54.386;18.394;2023-05-27T22:29:31;100579.79;;;11.15;67.50
24440;BME280;12618;54.386;18.394;2023-05-27T22:32:02;100575.66;;;11.12;67.67
24440;BME280;12618;54.386;18.394;2023-05-27T22:34:34;100575.44;;;11.09;67.93
24440;BME280;12618;54.386;18.394;2023-05-27T22:37:06;100577.45;;;11.06;67.78
24440;BME280;12618;54.386;18.394;2023-05-27T22:39:38;100571.90;;;11.04;67.57
24440;BME280;12618;54.386;18.394;2023-05-27T22:42:09;100575.34;;;11.02;67.52
24440;BME280;12618;54.386;18.394;2023-05-27T22:44:42;100568.52;;;10.95;67.94
24440;BME280;12618;54.386;18.394;2023-05-27T22:47:13;100572.71;;;10.91;67.90
24440;BME280;12618;54.386;18.394;2023-05-27T22:49:45;100572.38;;;10.91;67.86
24440;BME280;12618;54.386;18.394;2023-05-27T22:52:17;100573.16;;;10.88;68.03
24440;BME280;12618;54.386;18.394;2023-05-27T22:54:48;100570.77;;;10.86;68.04
24440;BME280;12618;54.386;18.394;2023-05-27T22:57:21;100566.94;;;10.85;68.03
24440;BME280;12618;54.386;18.394;2023-05-27T22:59:53;100570.42;;;10.86;68.20
24440;BME280;12618;54.386;18.394;2023-05-27T23:02:25;100568.09;;;10.87;68.59
24440;BME280;12618;54.386;18.394;2023-05-27T23:04:57;100567.86;;;10.84;68.58
24440;BME280;12618;54.386;18.394;2023-05-27T23:07:29;100565.65;;;10.77;68.60
24440;BME280;12618;54.386;18.394;2023-05-27T23:10:01;100561.29;;;10.71;68.84
24440;BME280;12618;54.386;18.394;2023-05-27T23:12:33;100560.23;;;10.66;68.83
24440;BME280;12618;54.386;18.394;2023-05-27T23:15:05;100552.88;;;10.60;68.78
24440;BME280;12618;54.386;18.394;2023-05-27T23:17:36;100547.29;;;10.53;69.09
24440;BME280;12618;54.386;18.394;2023-05-27T23:20:08;100543.31;;;10.47;69.90
24440;BME280;12618;54.386;18.394;2023-05-27T23:22:41;100539.60;;;10.41;70.63
24440;BME280;12618;54.386;18.394;2023-05-27T23:25:13;100534.69;;;10.37;70.38
24440;BME280;12618;54.386;18.394;2023-05-27T23:27:44;100533.95;;;10.37;72.43
24440;BME280;12618;54.386;18.394;2023-05-27T23:30:16;100533.14;;;10.35;71.13
24440;BME280;12618;54.386;18.394;2023-05-27T23:32:48;100531.77;;;10.29;71.01
24440;BME280;12618;54.386;18.394;2023-05-27T23:35:22;100525.48;;;10.23;71.08
24440;BME280;12618;54.386;18.394;2023-05-27T23:37:54;100526.08;;;10.20;71.38
24440;BME280;12618;54.386;18.394;2023-05-27T23:40:26;100525.19;;;10.14;71.37
24440;BME280;12618;54.386;18.394;2023-05-27T23:42:58;100524.66;;;10.09;72.32
24440;BME280;12618;54.386;18.394;2023-05-27T23:45:30;100521.13;;;10.04;72.07
24440;BME280;12618;54.386;18.394;2023-05-27T23:48:02;100520.42;;;9.99;72.22
24440;BME280;12618;54.386;18.394;2023-05-27T23:50:33;100519.98;;;9.96;72.59
24440;BME280;12618;54.386;18.394;2023-05-27T23:53:05;100520.14;;;9.91;72.54
24440;BME280;12618;54.386;18.394;2023-05-27T23:55:37;100519.59;;;9.86;73.19
24440;BME280;12618;54.386;18.394;2023-05-27T23:58:09;100519.77;;;9.81;73.22
